Terminal Aerodrome Forecast
Issued by NWS North Platte, NE

Home | Current Version | Previous Version | Graphics & Text | Print | Product List | Glossary On
Versions: 1 2 3 4 5 6 7 8 9 10 11 12 13 14 15 16
000
FTUS43 KLBF 161725
TAFVTN
TAF
KVTN 161725Z 1618/1718 36012KT P6SM BKN015
     FM170000 01010KT P6SM OVC025
     FM170600 01008KT 5SM BR OVC004
     FM171700 31006KT P6SM BKN025=

USA.gov is the U.S. government's official web portal to all federal, state and local government web resources and services.